HLLM

Mitiga Airport

Tripoli, Libya
METAR HLLM 240750Z 06010KT 7000 SKC 23/15 Q1019
Observed Flight Rules
May-24 @ 07:50 UTC (12 minutes ago) Marginal Visual Flight Rules
Wind Visibility Clouds
60° at 10 knots 7,001 meters
  • Clear skies
Temperatures Readings
Current 23°C / 73°F
Dewpoint 15°C / 59°F
Humidity 61%
Altimeter 30.09" Hg
Pressure 1019 hPa
Elevation 11
METAR HLLM 240750Z 06010KT 7000 SKC 23/15 Q1019
Observed Flight Rules
May-24 @ 07:50 UTC
(12 minutes ago)
MVFR
Wind Visibility
60° at 10 knots 7,001 meters
Clouds
  • Clear skies
Temperature Dewpoint
23°C / 73°F 15°C / 59°F
Humidity Altimeter Pressure
61% 30.09" Hg 1019 hPa